sensor_id;sensor_type;location;lat;lon;timestamp;pressure;altitude;pressure_sealevel;temperature;humidity
25526;BME280;13424;48.424;11.258;2023-05-02T00:01:59;95651.03;;;12.81;83.39
25526;BME280;13424;48.424;11.258;2023-05-02T00:04:24;95652.75;;;12.92;83.09
25526;BME280;13424;48.424;11.258;2023-05-02T00:06:53;95653.72;;;12.81;83.12
25526;BME280;13424;48.424;11.258;2023-05-02T00:09:20;95653.72;;;12.81;83.40
25526;BME280;13424;48.424;11.258;2023-05-02T00:11:46;95649.44;;;12.80;82.90
25526;BME280;13424;48.424;11.258;2023-05-02T00:14:11;95657.97;;;12.55;84.41
25526;BME280;13424;48.424;11.258;2023-05-02T00:16:37;95654.41;;;12.71;83.27
25526;BME280;13424;48.424;11.258;2023-05-02T00:19:03;95659.47;;;12.68;83.49
25526;BME280;13424;48.424;11.258;2023-05-02T00:21:38;95652.69;;;12.60;83.65
25526;BME280;13424;48.424;11.258;2023-05-02T00:24:04;95653.47;;;12.61;83.73
25526;BME280;13424;48.424;11.258;2023-05-02T00:26:30;95651.97;;;12.70;82.65
25526;BME280;13424;48.424;11.258;2023-05-02T00:29:43;95666.50;;;12.74;82.28
25526;BME280;13424;48.424;11.258;2023-05-02T00:32:09;95661.06;;;12.69;82.88
25526;BME280;13424;48.424;11.258;2023-05-02T00:34:35;95655.66;;;12.64;83.06
25526;BME280;13424;48.424;11.258;2023-05-02T00:37:01;95654.66;;;12.48;83.74
25526;BME280;13424;48.424;11.258;2023-05-02T00:39:27;95664.38;;;12.54;83.35
25526;BME280;13424;48.424;11.258;2023-05-02T00:41:59;95655.88;;;12.35;84.12
25526;BME280;13424;48.424;11.258;2023-05-02T00:44:25;95664.69;;;12.57;82.89
25526;BME280;13424;48.424;11.258;2023-05-02T00:46:51;95660.22;;;12.41;83.75
25526;BME280;13424;48.424;11.258;2023-05-02T00:49:18;95655.69;;;12.42;83.52
25526;BME280;13424;48.424;11.258;2023-05-02T00:51:44;95652.22;;;12.41;83.53
25526;BME280;13424;48.424;11.258;2023-05-02T00:54:12;95644.38;;;12.35;84.24
25526;BME280;13424;48.424;11.258;2023-05-02T00:56:38;95659.84;;;12.54;82.90
25526;BME280;13424;48.424;11.258;2023-05-02T00:59:05;95658.84;;;12.61;82.01
25526;BME280;13424;48.424;11.258;2023-05-02T01:13:30;95662.47;;;12.27;83.71
25526;BME280;13424;48.424;11.258;2023-05-02T01:15:57;95657.84;;;12.23;83.51
25526;BME280;13424;48.424;11.258;2023-05-02T01:18:27;95658.44;;;11.69;85.87
25526;BME280;13424;48.424;11.258;2023-05-02T01:21:00;95653.81;;;11.82;85.83
25526;BME280;13424;48.424;11.258;2023-05-02T01:24:02;95658.97;;;12.27;83.57
25526;BME280;13424;48.424;11.258;2023-05-02T01:29:36;95668.44;;;11.96;84.81
25526;BME280;13424;48.424;11.258;2023-05-02T01:32:02;95666.50;;;11.91;84.99
25526;BME280;13424;48.424;11.258;2023-05-02T01:34:29;95671.69;;;11.98;84.39
25526;BME280;13424;48.424;11.258;2023-05-02T01:36:56;95671.59;;;11.76;85.50
25526;BME280;13424;48.424;11.258;2023-05-02T01:39:24;95666.84;;;11.78;85.02
25526;BME280;13424;48.424;11.258;2023-05-02T01:41:54;95665.56;;;11.64;85.79
25526;BME280;13424;48.424;11.258;2023-05-02T01:44:22;95663.03;;;11.74;85.03
25526;BME280;13424;48.424;11.258;2023-05-02T01:46:48;95673.03;;;12.00;84.06
25526;BME280;13424;48.424;11.258;2023-05-02T01:49:16;95677.19;;;11.91;84.55
25526;BME280;13424;48.424;11.258;2023-05-02T01:51:48;95671.19;;;11.67;85.48
25526;BME280;13424;48.424;11.258;2023-05-02T01:54:16;95675.59;;;11.90;84.31
25526;BME280;13424;48.424;11.258;2023-05-02T01:56:43;95685.00;;;11.93;83.93
25526;BME280;13424;48.424;11.258;2023-05-02T01:59:21;95676.56;;;11.84;84.43
25526;BME280;13424;48.424;11.258;2023-05-02T02:01:49;95679.44;;;11.99;83.63
25526;BME280;13424;48.424;11.258;2023-05-02T02:04:16;95679.78;;;12.03;83.21
25526;BME280;13424;48.424;11.258;2023-05-02T02:06:48;95683.19;;;11.31;86.76
25526;BME280;13424;48.424;11.258;2023-05-02T02:09:17;95685.13;;;11.53;85.97
25526;BME280;13424;48.424;11.258;2023-05-02T02:11:49;95683.47;;;11.80;84.50
25526;BME280;13424;48.424;11.258;2023-05-02T02:14:24;95682.53;;;11.91;83.79
25526;BME280;13424;48.424;11.258;2023-05-02T02:16:52;95680.03;;;11.85;83.92
25526;BME280;13424;48.424;11.258;2023-05-02T02:19:19;95687.81;;;11.53;85.75
25526;BME280;13424;48.424;11.258;2023-05-02T02:21:47;95683.69;;;11.62;85.19
25526;BME280;13424;48.424;11.258;2023-05-02T02:24:12;95686.00;;;11.75;84.61
25526;BME280;13424;48.424;11.258;2023-05-02T02:26:41;95684.31;;;11.69;85.09
25526;BME280;13424;48.424;11.258;2023-05-02T02:29:07;95680.28;;;11.83;83.51
25526;BME280;13424;48.424;11.258;2023-05-02T02:31:34;95687.00;;;11.69;84.19
25526;BME280;13424;48.424;11.258;2023-05-02T02:34:01;95689.50;;;11.75;84.46
25526;BME280;13424;48.424;11.258;2023-05-02T02:36:31;95692.75;;;11.61;85.16
25526;BME280;13424;48.424;11.258;2023-05-02T02:45:55;95690.16;;;11.83;84.09
25526;BME280;13424;48.424;11.258;2023-05-02T02:48:29;95705.06;;;11.95;83.30
25526;BME280;13424;48.424;11.258;2023-05-02T02:51:29;95701.00;;;11.59;84.59
25526;BME280;13424;48.424;11.258;2023-05-02T02:54:15;95708.28;;;11.97;82.96
25526;BME280;13424;48.424;11.258;2023-05-02T02:56:47;95705.97;;;12.01;82.97
25526;BME280;13424;48.424;11.258;2023-05-02T02:59:28;95703.63;;;11.88;83.51
25526;BME280;13424;48.424;11.258;2023-05-02T03:02:08;95718.19;;;11.80;83.60
25526;BME280;13424;48.424;11.258;2023-05-02T03:04:38;95710.06;;;11.75;84.23
25526;BME280;13424;48.424;11.258;2023-05-02T03:07:05;95713.88;;;12.13;81.97
25526;BME280;13424;48.424;11.258;2023-05-02T03:09:42;95718.66;;;11.77;83.75
25526;BME280;13424;48.424;11.258;2023-05-02T03:12:11;95717.06;;;11.93;82.90
25526;BME280;13424;48.424;11.258;2023-05-02T03:14:39;95730.31;;;12.05;82.54
25526;BME280;13424;48.424;11.258;2023-05-02T03:17:05;95726.34;;;11.73;83.87
25526;BME280;13424;48.424;11.258;2023-05-02T03:19:35;95726.78;;;11.82;83.42
25526;BME280;13424;48.424;11.258;2023-05-02T03:22:03;95737.59;;;11.75;83.47
25526;BME280;13424;48.424;11.258;2023-05-02T03:24:29;95735.59;;;11.83;83.34
25526;BME280;13424;48.424;11.258;2023-05-02T03:26:57;95740.72;;;12.01;82.20
25526;BME280;13424;48.424;11.258;2023-05-02T03:29:27;95741.53;;;12.01;82.38
25526;BME280;13424;48.424;11.258;2023-05-02T03:31:53;95732.59;;;11.62;83.55
25526;BME280;13424;48.424;11.258;2023-05-02T03:34:21;95746.47;;;11.93;82.53
25526;BME280;13424;48.424;11.258;2023-05-02T03:36:47;95741.19;;;11.81;82.29
25526;BME280;13424;48.424;11.258;2023-05-02T03:39:14;95732.06;;;11.32;85.09
25526;BME280;13424;48.424;11.258;2023-05-02T03:41:41;95745.81;;;12.02;81.70
25526;BME280;13424;48.424;11.258;2023-05-02T03:44:12;95746.09;;;11.56;83.55
25526;BME280;13424;48.424;11.258;2023-05-02T03:46:38;95753.03;;;11.85;82.35
25526;BME280;13424;48.424;11.258;2023-05-02T03:49:08;95746.03;;;11.84;82.55
25526;BME280;13424;48.424;11.258;2023-05-02T03:51:34;95757.69;;;11.78;82.91
25526;BME280;13424;48.424;11.258;2023-05-02T03:54:01;95752.69;;;11.82;81.96
25526;BME280;13424;48.424;11.258;2023-05-02T03:56:31;95750.72;;;11.77;82.30
25526;BME280;13424;48.424;11.258;2023-05-02T03:59:15;95759.81;;;12.10;81.13
25526;BME280;13424;48.424;11.258;2023-05-02T04:01:42;95761.19;;;12.12;80.66
25526;BME280;13424;48.424;11.258;2023-05-02T04:04:10;95755.13;;;11.83;81.83
25526;BME280;13424;48.424;11.258;2023-05-02T04:06:43;95764.44;;;11.81;81.95
25526;BME280;13424;48.424;11.258;2023-05-02T04:09:09;95771.16;;;11.83;81.85
25526;BME280;13424;48.424;11.258;2023-05-02T04:11:42;95771.16;;;12.00;81.22
25526;BME280;13424;48.424;11.258;2023-05-02T04:14:10;95773.00;;;12.16;80.56
25526;BME280;13424;48.424;11.258;2023-05-02T04:16:36;95777.28;;;12.00;80.95
25526;BME280;13424;48.424;11.258;2023-05-02T04:19:03;95776.50;;;12.00;81.49
25526;BME280;13424;48.424;11.258;2023-05-02T04:21:29;95780.28;;;12.21;80.41
25526;BME280;13424;48.424;11.258;2023-05-02T04:23:56;95776.31;;;12.23;80.54
25526;BME280;13424;48.424;11.258;2023-05-02T04:26:22;95779.19;;;12.39;79.89
25526;BME280;13424;48.424;11.258;2023-05-02T04:28:57;95773.56;;;12.18;80.65
25526;BME280;13424;48.424;11.258;2023-05-02T04:31:23;95786.78;;;12.25;80.49
25526;BME280;13424;48.424;11.258;2023-05-02T04:33:50;95785.22;;;12.29;80.48
25526;BME280;13424;48.424;11.258;2023-05-02T04:40:26;95790.38;;;12.52;79.66
25526;BME280;13424;48.424;11.258;2023-05-02T04:42:59;95787.09;;;12.67;79.51
25526;BME280;13424;48.424;11.258;2023-05-02T04:45:34;95793.25;;;12.68;79.33
25526;BME280;13424;48.424;11.258;2023-05-02T04:48:03;95798.16;;;12.54;80.43
25526;BME280;13424;48.424;11.258;2023-05-02T04:50:29;95800.34;;;12.79;79.25
25526;BME280;13424;48.424;11.258;2023-05-02T04:53:22;95801.47;;;12.83;79.62
25526;BME280;13424;48.424;11.258;2023-05-02T04:55:49;95809.88;;;12.92;79.31
25526;BME280;13424;48.424;11.258;2023-05-02T04:58:15;95808.72;;;13.04;79.10
25526;BME280;13424;48.424;11.258;2023-05-02T05:00:42;95820.41;;;12.98;79.20
25526;BME280;13424;48.424;11.258;2023-05-02T05:03:08;95822.84;;;13.00;79.38
25526;BME280;13424;48.424;11.258;2023-05-02T05:05:35;95821.16;;;12.94;79.43
25526;BME280;13424;48.424;11.258;2023-05-02T05:08:17;95823.75;;;13.10;79.22
25526;BME280;13424;48.424;11.258;2023-05-02T05:10:44;95823.44;;;12.85;79.92
25526;BME280;13424;48.424;11.258;2023-05-02T05:13:10;95830.81;;;12.73;80.79
25526;BME280;13424;48.424;11.258;2023-05-02T05:15:38;95833.41;;;12.90;81.18
25526;BME280;13424;48.424;11.258;2023-05-02T05:18:05;95839.97;;;12.99;79.95
25526;BME280;13424;48.424;11.258;2023-05-02T05:20:31;95835.72;;;12.81;81.45
25526;BME280;13424;48.424;11.258;2023-05-02T05:22:59;95834.66;;;13.21;79.88
25526;BME280;13424;48.424;11.258;2023-05-02T05:25:26;95841.06;;;13.68;78.52
25526;BME280;13424;48.424;11.258;2023-05-02T05:27:53;95835.09;;;13.18;79.79
25526;BME280;13424;48.424;11.258;2023-05-02T05:30:23;95845.72;;;13.51;79.61
25526;BME280;13424;48.424;11.258;2023-05-02T05:32:49;95844.13;;;13.55;79.32
25526;BME280;13424;48.424;11.258;2023-05-02T05:35:15;95844.63;;;13.08;80.53
25526;BME280;13424;48.424;11.258;2023-05-02T05:37:41;95854.78;;;13.50;79.95
25526;BME280;13424;48.424;11.258;2023-05-02T05:40:10;95857.97;;;13.25;79.94
25526;BME280;13424;48.424;11.258;2023-05-02T05:42:38;95849.50;;;13.33;79.68
25526;BME280;13424;48.424;11.258;2023-05-02T05:45:10;95860.47;;;13.32;80.09
25526;BME280;13424;48.424;11.258;2023-05-02T05:47:37;95864.31;;;13.41;80.70
25526;BME280;13424;48.424;11.258;2023-05-02T05:50:04;95863.41;;;13.52;80.38
25526;BME280;13424;48.424;11.258;2023-05-02T05:52:31;95869.09;;;13.83;79.10
25526;BME280;13424;48.424;11.258;2023-05-02T05:54:59;95869.09;;;13.83;78.96
25526;BME280;13424;48.424;11.258;2023-05-02T05:57:27;95864.69;;;14.04;79.06
25526;BME280;13424;48.424;11.258;2023-05-02T05:59:54;95863.09;;;14.03;78.81
25526;BME280;13424;48.424;11.258;2023-05-02T06:02:20;95868.88;;;13.62;80.88
25526;BME280;13424;48.424;11.258;2023-05-02T06:04:47;95865.31;;;14.11;79.14
25526;BME280;13424;48.424;11.258;2023-05-02T06:07:15;95869.00;;;14.37;78.27
25526;BME280;13424;48.424;11.258;2023-05-02T06:09:41;95879.50;;;14.06;79.02
25526;BME280;13424;48.424;11.258;2023-05-02T06:12:07;95882.59;;;13.93;80.25
25526;BME280;13424;48.424;11.258;2023-05-02T06:14:43;95880.72;;;14.25;78.99
25526;BME280;13424;48.424;11.258;2023-05-02T06:17:09;95886.75;;;14.38;78.53
25526;BME280;13424;48.424;11.258;2023-05-02T06:19:35;95889.13;;;14.66;77.78
25526;BME280;13424;48.424;11.258;2023-05-02T06:22:00;95900.97;;;14.70;76.98
25526;BME280;13424;48.424;11.258;2023-05-02T06:24:26;95901.81;;;14.44;78.00
25526;BME280;13424;48.424;11.258;2023-05-02T06:26:52;95900.53;;;14.46;78.58
25526;BME280;13424;48.424;11.258;2023-05-02T06:29:18;95898.66;;;14.52;77.90
25526;BME280;13424;48.424;11.258;2023-05-02T06:31:44;95911.34;;;14.94;77.77
25526;BME280;13424;48.424;11.258;2023-05-02T06:34:09;95915.31;;;14.49;79.55
25526;BME280;13424;48.424;11.258;2023-05-02T06:36:35;95915.16;;;15.08;77.02
25526;BME280;13424;48.424;11.258;2023-05-02T06:39:01;95918.09;;;15.01;76.96
25526;BME280;13424;48.424;11.258;2023-05-02T06:41:27;95915.41;;;15.01;77.48
25526;BME280;13424;48.424;11.258;2023-05-02T06:43:53;95922.28;;;15.29;76.95
25526;BME280;13424;48.424;11.258;2023-05-02T06:46:19;95923.78;;;15.15;77.93
25526;BME280;13424;48.424;11.258;2023-05-02T06:48:45;95920.56;;;15.13;76.82
25526;BME280;13424;48.424;11.258;2023-05-02T06:51:13;95917.44;;;15.31;76.21
25526;BME280;13424;48.424;11.258;2023-05-02T06:53:39;95931.84;;;15.15;78.19
25526;BME280;13424;48.424;11.258;2023-05-02T06:56:09;95935.28;;;15.53;76.48
25526;BME280;13424;48.424;11.258;2023-05-02T06:58:34;95937.94;;;15.48;76.46
25526;BME280;13424;48.424;11.258;2023-05-02T07:01:00;95937.84;;;15.27;77.89
25526;BME280;13424;48.424;11.258;2023-05-02T07:03:26;95932.34;;;15.59;75.82
25526;BME280;13424;48.424;11.258;2023-05-02T07:05:52;95942.00;;;15.55;76.87
25526;BME280;13424;48.424;11.258;2023-05-02T07:08:18;95943.06;;;16.22;76.00
25526;BME280;13424;48.424;11.258;2023-05-02T07:10:46;95942.19;;;15.91;76.02
25526;BME280;13424;48.424;11.258;2023-05-02T07:13:11;95953.72;;;15.86;75.35
25526;BME280;13424;48.424;11.258;2023-05-02T07:15:41;95951.66;;;16.24;74.73
25526;BME280;13424;48.424;11.258;2023-05-02T07:18:07;95957.09;;;16.55;73.21
25526;BME280;13424;48.424;11.258;2023-05-02T07:20:33;95951.63;;;16.09;74.97
25526;BME280;13424;48.424;11.258;2023-05-02T07:22:59;95960.72;;;15.35;76.84
25526;BME280;13424;48.424;11.258;2023-05-02T07:25:24;95960.94;;;15.76;77.75
25526;BME280;13424;48.424;11.258;2023-05-02T07:27:50;95955.94;;;15.47;75.98
25526;BME280;13424;48.424;11.258;2023-05-02T07:30:16;95957.47;;;15.85;74.98
25526;BME280;13424;48.424;11.258;2023-05-02T07:32:42;95960.22;;;16.01;75.24
25526;BME280;13424;48.424;11.258;2023-05-02T07:35:08;95954.38;;;16.50;73.97
25526;BME280;13424;48.424;11.258;2023-05-02T07:37:34;95959.22;;;16.42;75.08
25526;BME280;13424;48.424;11.258;2023-05-02T07:40:00;95955.47;;;16.43;72.70
25526;BME280;13424;48.424;11.258;2023-05-02T07:42:30;95951.16;;;16.42;73.20
25526;BME280;13424;48.424;11.258;2023-05-02T07:44:56;95944.19;;;16.87;71.99
25526;BME280;13424;48.424;11.258;2023-05-02T07:47:22;95947.13;;;16.65;72.89
25526;BME280;13424;48.424;11.258;2023-05-02T07:49:52;95949.84;;;16.60;72.76
25526;BME280;13424;48.424;11.258;2023-05-02T07:52:58;95951.22;;;16.78;73.89
25526;BME280;13424;48.424;11.258;2023-05-02T07:55:25;95960.59;;;17.11;72.58
25526;BME280;13424;48.424;11.258;2023-05-02T07:57:55;95963.03;;;17.23;71.03
25526;BME280;13424;48.424;11.258;2023-05-02T08:00:21;95962.50;;;17.06;72.78
25526;BME280;13424;48.424;11.258;2023-05-02T08:02:46;95963.44;;;17.61;72.43
25526;BME280;13424;48.424;11.258;2023-05-02T08:05:12;95970.56;;;17.11;70.71
25526;BME280;13424;48.424;11.258;2023-05-02T08:07:38;95974.59;;;17.13;71.11
25526;BME280;13424;48.424;11.258;2023-05-02T08:10:05;95971.88;;;18.19;68.14
25526;BME280;13424;48.424;11.258;2023-05-02T08:12:31;95976.41;;;17.58;68.06
25526;BME280;13424;48.424;11.258;2023-05-02T08:14:57;95978.44;;;17.97;68.81
25526;BME280;13424;48.424;11.258;2023-05-02T08:17:23;95984.06;;;16.90;70.46
25526;BME280;13424;48.424;11.258;2023-05-02T08:19:57;95977.06;;;16.94;71.37
25526;BME280;13424;48.424;11.258;2023-05-02T08:22:23;95984.81;;;17.42;70.29
25526;BME280;13424;48.424;11.258;2023-05-02T08:24:49;95987.00;;;17.24;69.77
25526;BME280;13424;48.424;11.258;2023-05-02T08:27:15;95978.88;;;17.35;70.28
25526;BME280;13424;48.424;11.258;2023-05-02T08:29:41;95988.88;;;17.19;69.69
25526;BME280;13424;48.424;11.258;2023-05-02T08:36:14;95999.81;;;17.89;69.45
25526;BME280;13424;48.424;11.258;2023-05-02T08:38:45;95998.25;;;16.30;70.92
25526;BME280;13424;48.424;11.258;2023-05-02T08:41:12;95996.31;;;16.15;72.80
25526;BME280;13424;48.424;11.258;2023-05-02T08:43:39;95996.47;;;16.86;71.19
25526;BME280;13424;48.424;11.258;2023-05-02T08:46:06;96002.09;;;17.25;69.85
25526;BME280;13424;48.424;11.258;2023-05-02T08:48:35;96012.63;;;16.76;70.02
25526;BME280;13424;48.424;11.258;2023-05-02T08:51:13;96010.88;;;16.34;73.27
25526;BME280;13424;48.424;11.258;2023-05-02T08:53:40;96011.19;;;14.91;75.91
25526;BME280;13424;48.424;11.258;2023-05-02T08:56:08;96014.25;;;16.77;73.48
25526;BME280;13424;48.424;11.258;2023-05-02T08:58:35;96014.78;;;16.84;71.52
25526;BME280;13424;48.424;11.258;2023-05-02T09:01:08;96018.53;;;17.03;71.07
25526;BME280;13424;48.424;11.258;2023-05-02T09:03:35;96020.69;;;17.12;69.71
25526;BME280;13424;48.424;11.258;2023-05-02T09:06:12;96026.63;;;17.09;70.19
25526;BME280;13424;48.424;11.258;2023-05-02T09:08:38;96018.81;;;17.17;70.99
25526;BME280;13424;48.424;11.258;2023-05-02T09:11:06;96022.28;;;17.48;70.72
25526;BME280;13424;48.424;11.258;2023-05-02T09:13:42;96031.97;;;17.44;68.49
25526;BME280;13424;48.424;11.258;2023-05-02T09:16:09;96037.41;;;18.24;69.42
25526;BME280;13424;48.424;11.258;2023-05-02T09:18:43;96032.28;;;18.28;68.09
25526;BME280;13424;48.424;11.258;2023-05-02T09:21:12;96029.09;;;18.16;68.59
25526;BME280;13424;48.424;11.258;2023-05-02T09:26:38;96040.56;;;17.82;70.79
25526;BME280;13424;48.424;11.258;2023-05-02T09:29:04;96041.13;;;18.44;69.57
25526;BME280;13424;48.424;11.258;2023-05-02T09:31:33;96046.13;;;18.71;68.89
25526;BME280;13424;48.424;11.258;2023-05-02T09:34:09;96047.19;;;18.15;68.56
25526;BME280;13424;48.424;11.258;2023-05-02T09:39:17;96049.91;;;18.69;67.04
25526;BME280;13424;48.424;11.258;2023-05-02T09:41:46;96050.31;;;18.37;67.65
25526;BME280;13424;48.424;11.258;2023-05-02T09:44:14;96055.13;;;18.51;65.85
25526;BME280;13424;48.424;11.258;2023-05-02T09:46:49;96050.13;;;18.24;65.89
25526;BME280;13424;48.424;11.258;2023-05-02T09:49:15;96053.91;;;18.23;65.88
25526;BME280;13424;48.424;11.258;2023-05-02T09:51:48;96050.00;;;18.49;64.94
25526;BME280;13424;48.424;11.258;2023-05-02T09:54:34;96056.94;;;18.11;66.23
25526;BME280;13424;48.424;11.258;2023-05-02T09:57:01;96057.22;;;16.36;68.85
25526;BME280;13424;48.424;11.258;2023-05-02T09:59:27;96050.34;;;17.01;69.19
25526;BME280;13424;48.424;11.258;2023-05-02T10:01:57;96059.81;;;18.35;66.71
25526;BME280;13424;48.424;11.258;2023-05-02T10:04:24;96060.28;;;18.96;64.87
25526;BME280;13424;48.424;11.258;2023-05-02T10:06:51;96058.72;;;18.36;66.55
25526;BME280;13424;48.424;11.258;2023-05-02T10:09:19;96061.75;;;18.19;65.88
25526;BME280;13424;48.424;11.258;2023-05-02T10:11:45;96051.41;;;18.91;64.56
25526;BME280;13424;48.424;11.258;2023-05-02T10:14:11;96053.91;;;19.16;64.31
25526;BME280;13424;48.424;11.258;2023-05-02T10:17:06;96065.81;;;18.76;65.11
25526;BME280;13424;48.424;11.258;2023-05-02T10:20:06;96060.03;;;18.93;65.20
25526;BME280;13424;48.424;11.258;2023-05-02T10:22:35;96059.09;;;19.42;63.79
25526;BME280;13424;48.424;11.258;2023-05-02T10:25:03;96058.19;;;18.88;67.15
25526;BME280;13424;48.424;11.258;2023-05-02T10:27:29;96051.81;;;19.08;64.01
25526;BME280;13424;48.424;11.258;2023-05-02T10:29:58;96060.91;;;19.17;63.39
25526;BME280;13424;48.424;11.258;2023-05-02T10:32:27;96048.50;;;19.16;65.33
25526;BME280;13424;48.424;11.258;2023-05-02T10:34:55;96053.97;;;18.07;63.72
25526;BME280;13424;48.424;11.258;2023-05-02T10:37:23;96048.59;;;18.02;62.41
25526;BME280;13424;48.424;11.258;2023-05-02T10:39:50;96043.97;;;18.62;63.51
25526;BME280;13424;48.424;11.258;2023-05-02T10:42:15;96041.00;;;18.64;62.65
25526;BME280;13424;48.424;11.258;2023-05-02T10:44:42;96036.56;;;17.44;62.51
25526;BME280;13424;48.424;11.258;2023-05-02T10:47:24;96037.38;;;16.68;64.32
25526;BME280;13424;48.424;11.258;2023-05-02T10:49:59;96033.59;;;17.71;62.83
25526;BME280;13424;48.424;11.258;2023-05-02T10:52:37;96037.63;;;18.43;63.17
25526;BME280;13424;48.424;11.258;2023-05-02T10:55:19;96035.13;;;18.02;62.59
25526;BME280;13424;48.424;11.258;2023-05-02T11:00:31;96041.06;;;20.57;59.48
25526;BME280;13424;48.424;11.258;2023-05-02T11:02:58;96041.63;;;20.11;61.42
25526;BME280;13424;48.424;11.258;2023-05-02T11:05:25;96031.41;;;20.70;60.51
25526;BME280;13424;48.424;11.258;2023-05-02T11:10:52;96030.22;;;21.46;56.50
25526;BME280;13424;48.424;11.258;2023-05-02T11:13:47;96029.34;;;20.61;58.44
25526;BME280;13424;48.424;11.258;2023-05-02T11:16:13;96023.56;;;20.68;61.24
25526;BME280;13424;48.424;11.258;2023-05-02T11:18:58;96025.34;;;20.78;58.97
25526;BME280;13424;48.424;11.258;2023-05-02T11:21:28;96022.53;;;20.21;58.68
25526;BME280;13424;48.424;11.258;2023-05-02T11:24:37;96028.44;;;19.80;58.60
25526;BME280;13424;48.424;11.258;2023-05-02T11:30:37;96014.06;;;19.56;56.58
25526;BME280;13424;48.424;11.258;2023-05-02T11:35:29;96020.75;;;18.61;61.85
25526;BME280;13424;48.424;11.258;2023-05-02T11:38:13;96022.16;;;19.61;60.48
25526;BME280;13424;48.424;11.258;2023-05-02T11:44:04;96021.88;;;20.53;57.64
25526;BME280;13424;48.424;11.258;2023-05-02T11:46:30;96012.59;;;21.30;57.32
25526;BME280;13424;48.424;11.258;2023-05-02T11:48:56;96025.03;;;20.79;55.67
25526;BME280;13424;48.424;11.258;2023-05-02T11:51:22;96017.44;;;19.96;53.49
25526;BME280;13424;48.424;11.258;2023-05-02T11:53:48;96012.06;;;19.09;55.26
25526;BME280;13424;48.424;11.258;2023-05-02T11:56:24;96014.53;;;21.24;51.38
25526;BME280;13424;48.424;11.258;2023-05-02T11:59:01;96011.94;;;21.19;52.79
25526;BME280;13424;48.424;11.258;2023-05-02T12:02:00;96012.28;;;22.19;53.21
25526;BME280;13424;48.424;11.258;2023-05-02T12:04:26;96008.25;;;21.75;52.51
25526;BME280;13424;48.424;11.258;2023-05-02T12:06:56;96015.19;;;20.83;53.70
25526;BME280;13424;48.424;11.258;2023-05-02T12:09:22;96018.34;;;20.10;54.62
25526;BME280;13424;48.424;11.258;2023-05-02T12:11:52;96021.09;;;19.57;55.54
25526;BME280;13424;48.424;11.258;2023-05-02T12:14:28;96016.84;;;20.23;55.16
25526;BME280;13424;48.424;11.258;2023-05-02T12:16:57;96020.47;;;19.36;56.94
25526;BME280;13424;48.424;11.258;2023-05-02T12:19:23;96020.09;;;21.00;54.72
25526;BME280;13424;48.424;11.258;2023-05-02T12:21:49;96026.56;;;20.48;54.27
25526;BME280;13424;48.424;11.258;2023-05-02T12:24:15;96024.13;;;21.68;53.54
25526;BME280;13424;48.424;11.258;2023-05-02T12:26:41;96019.84;;;21.34;55.93
25526;BME280;13424;48.424;11.258;2023-05-02T12:29:07;96022.16;;;19.56;55.78
25526;BME280;13424;48.424;11.258;2023-05-02T12:31:52;96022.63;;;19.68;57.37
25526;BME280;13424;48.424;11.258;2023-05-02T12:34:34;96026.19;;;19.88;54.34
25526;BME280;13424;48.424;11.258;2023-05-02T12:37:01;96016.88;;;21.50;54.93
25526;BME280;13424;48.424;11.258;2023-05-02T12:39:37;96020.31;;;21.83;55.30
25526;BME280;13424;48.424;11.258;2023-05-02T12:42:14;96017.69;;;22.46;53.05
25526;BME280;13424;48.424;11.258;2023-05-02T12:44:44;96022.53;;;21.94;52.85
25526;BME280;13424;48.424;11.258;2023-05-02T12:47:12;96026.88;;;22.73;51.55
25526;BME280;13424;48.424;11.258;2023-05-02T12:49:57;96013.78;;;21.70;54.43
25526;BME280;13424;48.424;11.258;2023-05-02T12:52:49;96021.22;;;20.19;55.13
25526;BME280;13424;48.424;11.258;2023-05-02T12:58:44;96012.94;;;20.53;56.64
25526;BME280;13424;48.424;11.258;2023-05-02T13:01:10;96021.81;;;20.58;54.52
25526;BME280;13424;48.424;11.258;2023-05-02T13:03:36;96030.31;;;20.28;55.80
25526;BME280;13424;48.424;11.258;2023-05-02T13:06:03;96023.53;;;19.83;54.57
25526;BME280;13424;48.424;11.258;2023-05-02T13:08:29;96023.75;;;20.34;54.28
25526;BME280;13424;48.424;11.258;2023-05-02T13:10:54;96017.56;;;20.71;53.13
25526;BME280;13424;48.424;11.258;2023-05-02T13:13:20;96021.31;;;20.56;53.71
25526;BME280;13424;48.424;11.258;2023-05-02T13:15:46;96013.28;;;21.03;51.64
25526;BME280;13424;48.424;11.258;2023-05-02T13:18:12;96012.09;;;21.09;52.46
25526;BME280;13424;48.424;11.258;2023-05-02T13:20:38;96009.09;;;22.17;51.43
25526;BME280;13424;48.424;11.258;2023-05-02T13:23:03;96007.25;;;21.57;53.42
25526;BME280;13424;48.424;11.258;2023-05-02T13:25:29;96013.09;;;22.33;52.53
25526;BME280;13424;48.424;11.258;2023-05-02T13:27:55;96014.00;;;22.92;51.58
25526;BME280;13424;48.424;11.258;2023-05-02T13:34:27;96010.84;;;21.20;52.73
25526;BME280;13424;48.424;11.258;2023-05-02T13:36:52;96011.88;;;21.84;52.40
25526;BME280;13424;48.424;11.258;2023-05-02T13:39:18;96013.31;;;22.09;50.39
25526;BME280;13424;48.424;11.258;2023-05-02T13:41:44;96017.75;;;22.69;50.53
25526;BME280;13424;48.424;11.258;2023-05-02T13:44:10;96015.81;;;22.83;49.63
25526;BME280;13424;48.424;11.258;2023-05-02T13:46:36;96008.25;;;23.16;49.76
25526;BME280;13424;48.424;11.258;2023-05-02T13:49:03;96010.47;;;22.00;53.07
25526;BME280;13424;48.424;11.258;2023-05-02T13:51:29;96004.81;;;21.69;54.69
25526;BME280;13424;48.424;11.258;2023-05-02T13:53:58;96011.00;;;19.68;57.99
25526;BME280;13424;48.424;11.258;2023-05-02T13:56:24;96009.28;;;20.81;54.13
25526;BME280;13424;48.424;11.258;2023-05-02T13:58:50;96018.81;;;20.17;55.49
25526;BME280;13424;48.424;11.258;2023-05-02T14:01:16;96012.00;;;20.20;55.87